sensor_id;sensor_type;location;lat;lon;timestamp;temperature;humidity
33741;DHT22;20065;48.380;10.892;2023-03-29T00:01:36;5.90;99.90
33741;DHT22;20065;48.380;10.892;2023-03-29T00:04:26;5.80;99.90
33741;DHT22;20065;48.380;10.892;2023-03-29T00:07:12;5.50;99.90
33741;DHT22;20065;48.380;10.892;2023-03-29T00:09:59;5.40;99.90
33741;DHT22;20065;48.380;10.892;2023-03-29T00:12:46;5.30;99.90
33741;DHT22;20065;48.380;10.892;2023-03-29T00:15:32;5.30;99.90
33741;DHT22;20065;48.380;10.892;2023-03-29T00:18:18;5.10;99.90
33741;DHT22;20065;48.380;10.892;2023-03-29T00:21:04;5.20;99.90
33741;DHT22;20065;48.380;10.892;2023-03-29T00:23:51;5.20;99.90
33741;DHT22;20065;48.380;10.892;2023-03-29T00:26:37;5.10;99.90
33741;DHT22;20065;48.380;10.892;2023-03-29T00:29:23;5.10;99.90
33741;DHT22;20065;48.380;10.892;2023-03-29T00:32:09;5.10;99.90
33741;DHT22;20065;48.380;10.892;2023-03-29T00:34:59;5.10;99.90
33741;DHT22;20065;48.380;10.892;2023-03-29T00:37:46;5.00;99.90
33741;DHT22;20065;48.380;10.892;2023-03-29T00:40:43;4.90;99.90
33741;DHT22;20065;48.380;10.892;2023-03-29T00:43:49;4.80;99.90
33741;DHT22;20065;48.380;10.892;2023-03-29T00:46:35;4.80;99.90
33741;DHT22;20065;48.380;10.892;2023-03-29T00:49:21;4.60;99.90
33741;DHT22;20065;48.380;10.892;2023-03-29T00:52:07;4.50;99.90
33741;DHT22;20065;48.380;10.892;2023-03-29T00:54:54;4.60;99.90
33741;DHT22;20065;48.380;10.892;2023-03-29T00:57:44;4.50;99.90
33741;DHT22;20065;48.380;10.892;2023-03-29T01:00:36;4.50;99.90
33741;DHT22;20065;48.380;10.892;2023-03-29T01:03:25;4.40;99.90
33741;DHT22;20065;48.380;10.892;2023-03-29T01:06:15;4.50;99.90
33741;DHT22;20065;48.380;10.892;2023-03-29T01:09:05;4.40;99.90
33741;DHT22;20065;48.380;10.892;2023-03-29T01:11:55;4.50;99.90
33741;DHT22;20065;48.380;10.892;2023-03-29T01:15:05;4.80;99.90
33741;DHT22;20065;48.380;10.892;2023-03-29T01:17:54;5.10;99.90
33741;DHT22;20065;48.380;10.892;2023-03-29T01:30:12;5.30;99.90
33741;DHT22;20065;48.380;10.892;2023-03-29T01:33:07;5.30;99.90
33741;DHT22;20065;48.380;10.892;2023-03-29T01:36:12;5.30;99.90
33741;DHT22;20065;48.380;10.892;2023-03-29T01:39:04;5.30;99.90
33741;DHT22;20065;48.380;10.892;2023-03-29T01:45:06;5.30;99.90
33741;DHT22;20065;48.380;10.892;2023-03-29T01:50:52;5.40;99.90
33741;DHT22;20065;48.380;10.892;2023-03-29T01:56:38;5.50;99.90
33741;DHT22;20065;48.380;10.892;2023-03-29T01:59:30;5.50;99.90
33741;DHT22;20065;48.380;10.892;2023-03-29T02:02:23;5.50;99.90
33741;DHT22;20065;48.380;10.892;2023-03-29T02:05:14;5.60;99.90
33741;DHT22;20065;48.380;10.892;2023-03-29T02:08:03;5.60;99.90
33741;DHT22;20065;48.380;10.892;2023-03-29T02:10:51;5.60;99.90
33741;DHT22;20065;48.380;10.892;2023-03-29T02:13:37;5.50;99.90
33741;DHT22;20065;48.380;10.892;2023-03-29T02:16:23;5.50;99.90
33741;DHT22;20065;48.380;10.892;2023-03-29T02:19:09;5.40;99.90
33741;DHT22;20065;48.380;10.892;2023-03-29T02:22:04;5.40;99.90
33741;DHT22;20065;48.380;10.892;2023-03-29T02:24:54;5.30;99.90
33741;DHT22;20065;48.380;10.892;2023-03-29T02:27:45;5.30;99.90
33741;DHT22;20065;48.380;10.892;2023-03-29T02:34:01;5.30;99.90
33741;DHT22;20065;48.380;10.892;2023-03-29T02:36:56;5.30;99.90
33741;DHT22;20065;48.380;10.892;2023-03-29T02:39:47;5.30;99.90
33741;DHT22;20065;48.380;10.892;2023-03-29T02:42:34;5.30;99.90
33741;DHT22;20065;48.380;10.892;2023-03-29T02:45:22;5.30;99.90
33741;DHT22;20065;48.380;10.892;2023-03-29T02:48:14;5.30;99.90
33741;DHT22;20065;48.380;10.892;2023-03-29T02:51:07;5.50;99.90
33741;DHT22;20065;48.380;10.892;2023-03-29T02:54:00;5.50;99.90
33741;DHT22;20065;48.380;10.892;2023-03-29T02:56:56;5.50;99.90
33741;DHT22;20065;48.380;10.892;2023-03-29T02:59:43;5.50;99.90
33741;DHT22;20065;48.380;10.892;2023-03-29T03:02:29;5.50;99.90
33741;DHT22;20065;48.380;10.892;2023-03-29T03:05:16;5.50;99.90
33741;DHT22;20065;48.380;10.892;2023-03-29T03:08:03;5.50;99.90
33741;DHT22;20065;48.380;10.892;2023-03-29T03:10:52;5.40;99.90
33741;DHT22;20065;48.380;10.892;2023-03-29T03:13:39;5.40;99.90
33741;DHT22;20065;48.380;10.892;2023-03-29T03:16:26;5.40;99.90
33741;DHT22;20065;48.380;10.892;2023-03-29T03:19:12;5.30;99.90
33741;DHT22;20065;48.380;10.892;2023-03-29T03:21:59;5.40;99.90
33741;DHT22;20065;48.380;10.892;2023-03-29T03:24:45;5.40;99.90
33741;DHT22;20065;48.380;10.892;2023-03-29T03:27:31;5.40;99.90
33741;DHT22;20065;48.380;10.892;2023-03-29T03:30:19;5.40;99.90
33741;DHT22;20065;48.380;10.892;2023-03-29T03:33:24;5.50;99.90
33741;DHT22;20065;48.380;10.892;2023-03-29T03:36:37;5.50;99.90
33741;DHT22;20065;48.380;10.892;2023-03-29T03:39:24;5.40;99.90
33741;DHT22;20065;48.380;10.892;2023-03-29T03:42:10;5.40;99.90
33741;DHT22;20065;48.380;10.892;2023-03-29T03:45:00;5.30;99.90
33741;DHT22;20065;48.380;10.892;2023-03-29T03:48:05;5.40;99.90
33741;DHT22;20065;48.380;10.892;2023-03-29T03:51:07;5.40;99.90
33741;DHT22;20065;48.380;10.892;2023-03-29T03:53:55;5.40;99.90
33741;DHT22;20065;48.380;10.892;2023-03-29T03:57:02;5.50;99.90
33741;DHT22;20065;48.380;10.892;2023-03-29T03:59:59;5.40;99.90
33741;DHT22;20065;48.380;10.892;2023-03-29T04:02:58;5.40;99.90
33741;DHT22;20065;48.380;10.892;2023-03-29T04:05:47;5.50;99.90
33741;DHT22;20065;48.380;10.892;2023-03-29T04:08:35;5.50;99.90
33741;DHT22;20065;48.380;10.892;2023-03-29T04:11:32;5.60;99.90
33741;DHT22;20065;48.380;10.892;2023-03-29T04:14:18;5.70;99.90
33741;DHT22;20065;48.380;10.892;2023-03-29T04:17:23;5.60;99.90
33741;DHT22;20065;48.380;10.892;2023-03-29T04:20:15;5.80;99.90
33741;DHT22;20065;48.380;10.892;2023-03-29T04:23:02;5.60;99.90
33741;DHT22;20065;48.380;10.892;2023-03-29T04:25:53;5.60;99.90
33741;DHT22;20065;48.380;10.892;2023-03-29T04:29:00;5.70;99.90
33741;DHT22;20065;48.380;10.892;2023-03-29T04:32:01;5.80;99.90
33741;DHT22;20065;48.380;10.892;2023-03-29T04:35:07;5.90;99.90
33741;DHT22;20065;48.380;10.892;2023-03-29T04:37:54;5.90;99.90
33741;DHT22;20065;48.380;10.892;2023-03-29T04:40:41;6.00;99.90
33741;DHT22;20065;48.380;10.892;2023-03-29T04:43:51;5.90;99.90
33741;DHT22;20065;48.380;10.892;2023-03-29T04:46:44;5.50;99.90
33741;DHT22;20065;48.380;10.892;2023-03-29T04:50:01;5.50;99.90
33741;DHT22;20065;48.380;10.892;2023-03-29T04:52:57;5.50;99.90
33741;DHT22;20065;48.380;10.892;2023-03-29T04:55:47;5.50;99.90
33741;DHT22;20065;48.380;10.892;2023-03-29T04:58:39;5.60;99.90
33741;DHT22;20065;48.380;10.892;2023-03-29T05:01:25;5.60;99.90
33741;DHT22;20065;48.380;10.892;2023-03-29T05:04:16;5.70;99.90
33741;DHT22;20065;48.380;10.892;2023-03-29T05:07:16;5.70;99.90
33741;DHT22;20065;48.380;10.892;2023-03-29T05:10:04;5.80;99.90
33741;DHT22;20065;48.380;10.892;2023-03-29T05:12:51;5.60;99.90
33741;DHT22;20065;48.380;10.892;2023-03-29T05:15:40;5.90;99.90
33741;DHT22;20065;48.380;10.892;2023-03-29T05:18:27;5.90;99.90
33741;DHT22;20065;48.380;10.892;2023-03-29T05:21:14;6.00;99.90
33741;DHT22;20065;48.380;10.892;2023-03-29T05:24:03;6.10;99.90
33741;DHT22;20065;48.380;10.892;2023-03-29T05:27:04;6.20;99.90
33741;DHT22;20065;48.380;10.892;2023-03-29T05:29:53;6.30;99.90
33741;DHT22;20065;48.380;10.892;2023-03-29T05:32:50;6.40;99.90
33741;DHT22;20065;48.380;10.892;2023-03-29T05:35:41;6.50;99.90
33741;DHT22;20065;48.380;10.892;2023-03-29T05:38:28;6.50;99.90
33741;DHT22;20065;48.380;10.892;2023-03-29T05:41:15;6.50;99.90
33741;DHT22;20065;48.380;10.892;2023-03-29T05:44:34;6.50;99.90
33741;DHT22;20065;48.380;10.892;2023-03-29T05:47:31;6.50;99.90
33741;DHT22;20065;48.380;10.892;2023-03-29T05:50:17;6.50;99.90
33741;DHT22;20065;48.380;10.892;2023-03-29T05:53:03;6.50;99.90
33741;DHT22;20065;48.380;10.892;2023-03-29T05:55:50;6.50;99.90
33741;DHT22;20065;48.380;10.892;2023-03-29T05:58:38;6.60;99.90
33741;DHT22;20065;48.380;10.892;2023-03-29T06:01:28;6.60;99.90
33741;DHT22;20065;48.380;10.892;2023-03-29T06:04:26;6.60;99.90
33741;DHT22;20065;48.380;10.892;2023-03-29T06:07:38;7.00;99.90
33741;DHT22;20065;48.380;10.892;2023-03-29T06:10:48;7.00;99.90
33741;DHT22;20065;48.380;10.892;2023-03-29T06:14:04;6.80;99.90
33741;DHT22;20065;48.380;10.892;2023-03-29T06:16:51;6.80;99.90
33741;DHT22;20065;48.380;10.892;2023-03-29T06:19:38;6.90;99.90
33741;DHT22;20065;48.380;10.892;2023-03-29T06:22:24;6.90;99.90
33741;DHT22;20065;48.380;10.892;2023-03-29T06:25:11;6.90;99.90
33741;DHT22;20065;48.380;10.892;2023-03-29T06:27:58;7.00;99.90
33741;DHT22;20065;48.380;10.892;2023-03-29T06:30:45;7.00;99.90
33741;DHT22;20065;48.380;10.892;2023-03-29T06:33:31;7.10;99.90
33741;DHT22;20065;48.380;10.892;2023-03-29T06:36:27;7.30;99.90
33741;DHT22;20065;48.380;10.892;2023-03-29T06:39:13;7.40;99.90
33741;DHT22;20065;48.380;10.892;2023-03-29T06:42:19;7.50;99.90
33741;DHT22;20065;48.380;10.892;2023-03-29T06:45:43;7.60;99.90
33741;DHT22;20065;48.380;10.892;2023-03-29T06:48:40;7.60;99.90
33741;DHT22;20065;48.380;10.892;2023-03-29T06:51:27;7.70;99.90
33741;DHT22;20065;48.380;10.892;2023-03-29T06:54:14;7.80;99.90
33741;DHT22;20065;48.380;10.892;2023-03-29T06:57:09;7.80;99.90
33741;DHT22;20065;48.380;10.892;2023-03-29T06:59:57;7.80;99.90
33741;DHT22;20065;48.380;10.892;2023-03-29T07:03:02;7.90;99.90
33741;DHT22;20065;48.380;10.892;2023-03-29T07:05:49;8.00;99.90
33741;DHT22;20065;48.380;10.892;2023-03-29T07:08:38;8.00;99.90
33741;DHT22;20065;48.380;10.892;2023-03-29T07:11:50;8.10;99.90
33741;DHT22;20065;48.380;10.892;2023-03-29T07:14:43;8.20;99.90
33741;DHT22;20065;48.380;10.892;2023-03-29T07:17:29;8.40;99.90
33741;DHT22;20065;48.380;10.892;2023-03-29T07:20:16;8.40;99.90
33741;DHT22;20065;48.380;10.892;2023-03-29T07:23:08;8.40;99.90
33741;DHT22;20065;48.380;10.892;2023-03-29T07:25:54;8.40;99.90
33741;DHT22;20065;48.380;10.892;2023-03-29T07:28:41;8.60;99.90
33741;DHT22;20065;48.380;10.892;2023-03-29T07:31:28;8.60;99.90
33741;DHT22;20065;48.380;10.892;2023-03-29T07:34:27;8.80;99.90
33741;DHT22;20065;48.380;10.892;2023-03-29T07:37:15;8.90;99.90
33741;DHT22;20065;48.380;10.892;2023-03-29T07:40:06;9.00;99.90
33741;DHT22;20065;48.380;10.892;2023-03-29T07:43:21;9.00;99.90
33741;DHT22;20065;48.380;10.892;2023-03-29T07:46:07;9.00;99.90
33741;DHT22;20065;48.380;10.892;2023-03-29T07:48:55;9.10;99.90
33741;DHT22;20065;48.380;10.892;2023-03-29T07:51:42;9.10;99.90
33741;DHT22;20065;48.380;10.892;2023-03-29T07:54:30;9.10;99.90
33741;DHT22;20065;48.380;10.892;2023-03-29T07:57:40;9.10;99.90
33741;DHT22;20065;48.380;10.892;2023-03-29T08:00:26;9.20;99.90
33741;DHT22;20065;48.380;10.892;2023-03-29T08:03:33;9.20;99.90
33741;DHT22;20065;48.380;10.892;2023-03-29T08:06:20;9.30;99.90
33741;DHT22;20065;48.380;10.892;2023-03-29T08:09:07;9.50;99.90
33741;DHT22;20065;48.380;10.892;2023-03-29T08:11:53;9.60;99.90
33741;DHT22;20065;48.380;10.892;2023-03-29T08:14:45;9.70;99.90
33741;DHT22;20065;48.380;10.892;2023-03-29T08:17:51;9.70;99.90
33741;DHT22;20065;48.380;10.892;2023-03-29T08:20:38;9.70;99.90
33741;DHT22;20065;48.380;10.892;2023-03-29T08:23:24;9.80;99.90
33741;DHT22;20065;48.380;10.892;2023-03-29T08:26:33;9.90;99.90
33741;DHT22;20065;48.380;10.892;2023-03-29T08:29:20;10.10;99.90
33741;DHT22;20065;48.380;10.892;2023-03-29T08:32:08;10.10;99.90
33741;DHT22;20065;48.380;10.892;2023-03-29T08:34:54;10.10;99.90
33741;DHT22;20065;48.380;10.892;2023-03-29T08:37:44;10.30;99.90
33741;DHT22;20065;48.380;10.892;2023-03-29T08:40:33;10.20;99.90
33741;DHT22;20065;48.380;10.892;2023-03-29T08:44:27;10.00;99.90
33741;DHT22;20065;48.380;10.892;2023-03-29T08:50:51;9.80;99.90
33741;DHT22;20065;48.380;10.892;2023-03-29T08:53:42;9.80;99.90
33741;DHT22;20065;48.380;10.892;2023-03-29T08:56:38;10.00;99.90
33741;DHT22;20065;48.380;10.892;2023-03-29T08:59:36;10.10;99.90
33741;DHT22;20065;48.380;10.892;2023-03-29T09:02:30;10.30;99.90
33741;DHT22;20065;48.380;10.892;2023-03-29T09:05:29;10.30;99.90
33741;DHT22;20065;48.380;10.892;2023-03-29T09:08:26;10.30;99.90
33741;DHT22;20065;48.380;10.892;2023-03-29T09:20:24;10.60;99.90
33741;DHT22;20065;48.380;10.892;2023-03-29T09:27:01;10.70;99.90
33741;DHT22;20065;48.380;10.892;2023-03-29T09:30:16;11.10;99.90
33741;DHT22;20065;48.380;10.892;2023-03-29T09:33:25;11.30;99.90
33741;DHT22;20065;48.380;10.892;2023-03-29T09:36:52;11.40;99.90
33741;DHT22;20065;48.380;10.892;2023-03-29T09:39:40;11.50;99.90
33741;DHT22;20065;48.380;10.892;2023-03-29T09:42:30;11.40;99.90
33741;DHT22;20065;48.380;10.892;2023-03-29T09:45:17;11.80;99.90
33741;DHT22;20065;48.380;10.892;2023-03-29T09:48:13;12.30;99.90
33741;DHT22;20065;48.380;10.892;2023-03-29T09:51:05;12.30;99.90
33741;DHT22;20065;48.380;10.892;2023-03-29T09:53:55;12.10;99.90
33741;DHT22;20065;48.380;10.892;2023-03-29T09:57:18;12.00;99.90
33741;DHT22;20065;48.380;10.892;2023-03-29T10:00:06;12.00;99.90
33741;DHT22;20065;48.380;10.892;2023-03-29T10:02:59;12.10;99.90
33741;DHT22;20065;48.380;10.892;2023-03-29T10:05:58;12.20;99.90
33741;DHT22;20065;48.380;10.892;2023-03-29T10:08:48;12.00;99.90
33741;DHT22;20065;48.380;10.892;2023-03-29T10:11:36;12.10;99.90
33741;DHT22;20065;48.380;10.892;2023-03-29T10:17:22;11.90;99.90
33741;DHT22;20065;48.380;10.892;2023-03-29T10:20:13;11.90;99.90
33741;DHT22;20065;48.380;10.892;2023-03-29T10:23:03;11.80;99.90
33741;DHT22;20065;48.380;10.892;2023-03-29T10:25:50;11.70;99.90
33741;DHT22;20065;48.380;10.892;2023-03-29T10:28:36;11.80;99.90
33741;DHT22;20065;48.380;10.892;2023-03-29T10:31:23;12.00;99.90
33741;DHT22;20065;48.380;10.892;2023-03-29T10:34:13;12.10;99.90
33741;DHT22;20065;48.380;10.892;2023-03-29T10:37:00;12.30;99.90
33741;DHT22;20065;48.380;10.892;2023-03-29T10:39:48;12.50;99.90
33741;DHT22;20065;48.380;10.892;2023-03-29T10:42:35;12.40;99.90
33741;DHT22;20065;48.380;10.892;2023-03-29T10:45:33;12.50;99.90
33741;DHT22;20065;48.380;10.892;2023-03-29T10:48:30;12.60;99.90
33741;DHT22;20065;48.380;10.892;2023-03-29T10:51:17;12.70;99.90
33741;DHT22;20065;48.380;10.892;2023-03-29T10:54:05;12.70;99.90
33741;DHT22;20065;48.380;10.892;2023-03-29T10:57:00;12.60;99.90
33741;DHT22;20065;48.380;10.892;2023-03-29T11:00:24;12.60;99.90
33741;DHT22;20065;48.380;10.892;2023-03-29T11:08:57;12.90;99.90
33741;DHT22;20065;48.380;10.892;2023-03-29T11:30:27;12.70;99.90
33741;DHT22;20065;48.380;10.892;2023-03-29T11:42:17;13.30;99.00
33741;DHT22;20065;48.380;10.892;2023-03-29T11:45:11;13.70;98.60
33741;DHT22;20065;48.380;10.892;2023-03-29T11:48:01;13.50;98.10
33741;DHT22;20065;48.380;10.892;2023-03-29T11:51:02;13.90;98.40
33741;DHT22;20065;48.380;10.892;2023-03-29T12:00:03;13.80;98.30
33741;DHT22;20065;48.380;10.892;2023-03-29T12:05:48;13.80;99.20
33741;DHT22;20065;48.380;10.892;2023-03-29T12:08:59;14.00;98.30
33741;DHT22;20065;48.380;10.892;2023-03-29T12:17:42;13.70;99.00
33741;DHT22;20065;48.380;10.892;2023-03-29T12:20:36;13.70;98.80
33741;DHT22;20065;48.380;10.892;2023-03-29T12:23:23;13.90;98.70
33741;DHT22;20065;48.380;10.892;2023-03-29T12:26:29;14.00;98.30
33741;DHT22;20065;48.380;10.892;2023-03-29T12:38:58;14.60;96.60
33741;DHT22;20065;48.380;10.892;2023-03-29T12:42:19;14.50;96.70
33741;DHT22;20065;48.380;10.892;2023-03-29T12:45:43;14.50;96.70
33741;DHT22;20065;48.380;10.892;2023-03-29T12:48:36;14.60;96.70
33741;DHT22;20065;48.380;10.892;2023-03-29T12:51:31;14.50;96.70
33741;DHT22;20065;48.380;10.892;2023-03-29T12:54:23;14.60;96.60
33741;DHT22;20065;48.380;10.892;2023-03-29T12:57:41;14.70;96.60
33741;DHT22;20065;48.380;10.892;2023-03-29T13:03:28;15.00;97.30
33741;DHT22;20065;48.380;10.892;2023-03-29T13:06:33;14.90;96.70
33741;DHT22;20065;48.380;10.892;2023-03-29T13:09:46;15.00;96.50
33741;DHT22;20065;48.380;10.892;2023-03-29T13:12:43;15.20;96.40
33741;DHT22;20065;48.380;10.892;2023-03-29T13:15:33;15.30;97.10
33741;DHT22;20065;48.380;10.892;2023-03-29T13:22:22;15.10;96.40
33741;DHT22;20065;48.380;10.892;2023-03-29T13:40:42;14.90;97.30
33741;DHT22;20065;48.380;10.892;2023-03-29T13:43:34;14.80;97.60
33741;DHT22;20065;48.380;10.892;2023-03-29T13:46:43;14.70;96.80
33741;DHT22;20065;48.380;10.892;2023-03-29T13:49:32;14.80;96.80
33741;DHT22;20065;48.380;10.892;2023-03-29T13:52:29;14.80;96.80
33741;DHT22;20065;48.380;10.892;2023-03-29T13:55:26;15.20;97.00
33741;DHT22;20065;48.380;10.892;2023-03-29T13:58:31;15.70;96.00
33741;DHT22;20065;48.380;10.892;2023-03-29T14:01:29;15.60;95.20
33741;DHT22;20065;48.380;10.892;2023-03-29T14:04:22;15.20;95.20
33741;DHT22;20065;48.380;10.892;2023-03-29T14:07:11;15.10;95.20
33741;DHT22;20065;48.380;10.892;2023-03-29T14:09:58;15.10;95.60
33741;DHT22;20065;48.380;10.892;2023-03-29T14:12:49;15.00;95.20
33741;DHT22;20065;48.380;10.892;2023-03-29T14:15:57;14.70;95.30
33741;DHT22;20065;48.380;10.892;2023-03-29T14:18:47;14.50;95.60
33741;DHT22;20065;48.380;10.892;2023-03-29T14:21:36;14.30;96.10
33741;DHT22;20065;48.380;10.892;2023-03-29T14:24:25;14.20;95.90
33741;DHT22;20065;48.380;10.892;2023-03-29T14:27:13;14.20;96.40
33741;DHT22;20065;48.380;10.892;2023-03-29T14:30:00;14.20;96.10
33741;DHT22;20065;48.380;10.892;2023-03-29T14:32:48;14.20;96.40
33741;DHT22;20065;48.380;10.892;2023-03-29T14:35:35;14.20;96.30
33741;DHT22;20065;48.380;10.892;2023-03-29T14:38:23;14.10;96.50
33741;DHT22;20065;48.380;10.892;2023-03-29T14:41:10;14.10;96.70
33741;DHT22;20065;48.380;10.892;2023-03-29T14:43:56;14.10;96.70
33741;DHT22;20065;48.380;10.892;2023-03-29T14:46:44;14.20;96.70
33741;DHT22;20065;48.380;10.892;2023-03-29T14:49:34;14.30;96.90
33741;DHT22;20065;48.380;10.892;2023-03-29T14:52:22;14.20;96.90
33741;DHT22;20065;48.380;10.892;2023-03-29T14:55:08;14.20;97.30
33741;DHT22;20065;48.380;10.892;2023-03-29T14:57:56;14.10;97.90
33741;DHT22;20065;48.380;10.892;2023-03-29T15:00:43;14.00;99.10
33741;DHT22;20065;48.380;10.892;2023-03-29T15:03:49;13.80;99.90
33741;DHT22;20065;48.380;10.892;2023-03-29T15:06:38;13.50;99.90
33741;DHT22;20065;48.380;10.892;2023-03-29T15:09:29;13.30;99.90
33741;DHT22;20065;48.380;10.892;2023-03-29T15:12:16;13.20;99.90
33741;DHT22;20065;48.380;10.892;2023-03-29T15:15:03;13.10;99.90
33741;DHT22;20065;48.380;10.892;2023-03-29T15:17:56;13.30;99.90
33741;DHT22;20065;48.380;10.892;2023-03-29T15:20:43;13.40;99.90
33741;DHT22;20065;48.380;10.892;2023-03-29T15:23:49;13.60;99.90
33741;DHT22;20065;48.380;10.892;2023-03-29T15:26:36;13.70;99.90
33741;DHT22;20065;48.380;10.892;2023-03-29T15:29:23;13.60;99.90
33741;DHT22;20065;48.380;10.892;2023-03-29T15:32:21;13.60;99.90
33741;DHT22;20065;48.380;10.892;2023-03-29T15:35:21;13.50;99.90
33741;DHT22;20065;48.380;10.892;2023-03-29T15:38:12;13.50;99.90
33741;DHT22;20065;48.380;10.892;2023-03-29T15:40:59;13.60;99.90
33741;DHT22;20065;48.380;10.892;2023-03-29T15:43:46;13.50;99.90
33741;DHT22;20065;48.380;10.892;2023-03-29T15:46:32;13.40;99.90
33741;DHT22;20065;48.380;10.892;2023-03-29T15:49:18;13.20;99.90
33741;DHT22;20065;48.380;10.892;2023-03-29T15:52:05;13.20;99.90
33741;DHT22;20065;48.380;10.892;2023-03-29T15:54:51;13.00;99.90
33741;DHT22;20065;48.380;10.892;2023-03-29T15:57:37;13.10;99.90
33741;DHT22;20065;48.380;10.892;2023-03-29T16:00:24;13.10;99.90
33741;DHT22;20065;48.380;10.892;2023-03-29T16:03:13;13.20;99.90
33741;DHT22;20065;48.380;10.892;2023-03-29T16:06:00;13.10;99.90
33741;DHT22;20065;48.380;10.892;2023-03-29T16:08:48;13.20;99.90
33741;DHT22;20065;48.380;10.892;2023-03-29T16:11:35;13.10;99.90
33741;DHT22;20065;48.380;10.892;2023-03-29T16:14:23;13.10;99.90
33741;DHT22;20065;48.380;10.892;2023-03-29T16:17:10;13.20;99.90
33741;DHT22;20065;48.380;10.892;2023-03-29T16:19:57;12.80;99.90
33741;DHT22;20065;48.380;10.892;2023-03-29T16:22:43;12.90;99.90
33741;DHT22;20065;48.380;10.892;2023-03-29T16:25:29;12.80;99.90
33741;DHT22;20065;48.380;10.892;2023-03-29T16:28:15;13.00;99.90
33741;DHT22;20065;48.380;10.892;2023-03-29T16:31:02;13.00;99.90
33741;DHT22;20065;48.380;10.892;2023-03-29T16:33:51;12.70;99.90
33741;DHT22;20065;48.380;10.892;2023-03-29T16:36:39;12.70;99.90
33741;DHT22;20065;48.380;10.892;2023-03-29T16:39:25;12.80;99.90
33741;DHT22;20065;48.380;10.892;2023-03-29T16:42:11;12.80;99.90
33741;DHT22;20065;48.380;10.892;2023-03-29T16:45:01;12.80;99.90
33741;DHT22;20065;48.380;10.892;2023-03-29T16:47:47;12.80;99.90
33741;DHT22;20065;48.380;10.892;2023-03-29T16:50:33;12.90;99.90
33741;DHT22;20065;48.380;10.892;2023-03-29T16:53:19;12.80;99.90
33741;DHT22;20065;48.380;10.892;2023-03-29T16:56:06;12.80;99.90
33741;DHT22;20065;48.380;10.892;2023-03-29T16:58:52;12.90;99.90
33741;DHT22;20065;48.380;10.892;2023-03-29T17:01:39;13.00;99.90
33741;DHT22;20065;48.380;10.892;2023-03-29T17:04:25;13.00;99.90
33741;DHT22;20065;48.380;10.892;2023-03-29T17:07:11;12.90;99.90
33741;DHT22;20065;48.380;10.892;2023-03-29T17:09:57;12.90;99.90
33741;DHT22;20065;48.380;10.892;2023-03-29T17:12:43;12.60;99.90
33741;DHT22;20065;48.380;10.892;2023-03-29T17:15:31;12.70;99.90
33741;DHT22;20065;48.380;10.892;2023-03-29T17:18:21;12.60;99.90
33741;DHT22;20065;48.380;10.892;2023-03-29T17:21:08;12.70;99.90
33741;DHT22;20065;48.380;10.892;2023-03-29T17:23:54;12.80;99.90
33741;DHT22;20065;48.380;10.892;2023-03-29T17:26:40;12.80;99.90
33741;DHT22;20065;48.380;10.892;2023-03-29T17:29:26;12.90;99.90
33741;DHT22;20065;48.380;10.892;2023-03-29T17:32:13;12.90;99.90
33741;DHT22;20065;48.380;10.892;2023-03-29T17:34:59;12.80;99.90
33741;DHT22;20065;48.380;10.892;2023-03-29T17:37:45;12.70;99.90
33741;DHT22;20065;48.380;10.892;2023-03-29T17:40:32;12.70;99.90
33741;DHT22;20065;48.380;10.892;2023-03-29T17:43:19;12.70;99.90
33741;DHT22;20065;48.380;10.892;2023-03-29T17:46:05;12.70;99.90
33741;DHT22;20065;48.380;10.892;2023-03-29T17:48:51;12.70;99.90
33741;DHT22;20065;48.380;10.892;2023-03-29T17:51:37;12.70;99.90
33741;DHT22;20065;48.380;10.892;2023-03-29T17:54:24;12.70;99.90
33741;DHT22;20065;48.380;10.892;2023-03-29T17:57:10;12.70;99.90
33741;DHT22;20065;48.380;10.892;2023-03-29T17:59:56;12.70;99.90
33741;DHT22;20065;48.380;10.892;2023-03-29T18:02:43;12.70;99.90
33741;DHT22;20065;48.380;10.892;2023-03-29T18:05:29;12.60;99.90
33741;DHT22;20065;48.380;10.892;2023-03-29T18:08:15;12.60;99.90
33741;DHT22;20065;48.380;10.892;2023-03-29T18:11:10;12.70;99.90
33741;DHT22;20065;48.380;10.892;2023-03-29T18:13:58;12.70;99.90
33741;DHT22;20065;48.380;10.892;2023-03-29T18:16:45;12.70;99.90
33741;DHT22;20065;48.380;10.892;2023-03-29T18:19:31;12.60;99.90
33741;DHT22;20065;48.380;10.892;2023-03-29T18:22:17;12.50;99.90
33741;DHT22;20065;48.380;10.892;2023-03-29T18:25:04;12.60;99.90
33741;DHT22;20065;48.380;10.892;2023-03-29T18:27:52;12.60;99.90
33741;DHT22;20065;48.380;10.892;2023-03-29T18:30:38;12.70;99.90
33741;DHT22;20065;48.380;10.892;2023-03-29T18:33:25;12.70;99.90
33741;DHT22;20065;48.380;10.892;2023-03-29T18:36:12;12.70;99.90
33741;DHT22;20065;48.380;10.892;2023-03-29T18:38:58;12.70;99.90
33741;DHT22;20065;48.380;10.892;2023-03-29T18:41:50;12.60;99.90
33741;DHT22;20065;48.380;10.892;2023-03-29T18:44:37;12.60;99.90
33741;DHT22;20065;48.380;10.892;2023-03-29T18:47:45;12.50;99.90
33741;DHT22;20065;48.380;10.892;2023-03-29T18:50:32;12.50;99.90
33741;DHT22;20065;48.380;10.892;2023-03-29T18:53:18;12.50;99.90
33741;DHT22;20065;48.380;10.892;2023-03-29T18:56:05;12.50;99.90
33741;DHT22;20065;48.380;10.892;2023-03-29T18:58:52;12.50;99.90
33741;DHT22;20065;48.380;10.892;2023-03-29T19:01:39;12.50;99.90
33741;DHT22;20065;48.380;10.892;2023-03-29T19:04:29;12.50;99.90
33741;DHT22;20065;48.380;10.892;2023-03-29T19:07:21;12.30;99.90
33741;DHT22;20065;48.380;10.892;2023-03-29T19:10:14;12.30;99.90
33741;DHT22;20065;48.380;10.892;2023-03-29T19:13:08;12.30;99.90
33741;DHT22;20065;48.380;10.892;2023-03-29T19:15:54;12.20;99.90
33741;DHT22;20065;48.380;10.892;2023-03-29T19:18:41;12.20;99.90
33741;DHT22;20065;48.380;10.892;2023-03-29T19:21:28;12.20;99.90
33741;DHT22;20065;48.380;10.892;2023-03-29T19:24:16;12.20;99.90
33741;DHT22;20065;48.380;10.892;2023-03-29T19:27:03;12.10;99.90
33741;DHT22;20065;48.380;10.892;2023-03-29T19:29:52;12.10;99.90
33741;DHT22;20065;48.380;10.892;2023-03-29T19:32:39;11.90;99.90
33741;DHT22;20065;48.380;10.892;2023-03-29T19:35:25;11.70;99.90
33741;DHT22;20065;48.380;10.892;2023-03-29T19:38:17;11.60;99.90
33741;DHT22;20065;48.380;10.892;2023-03-29T19:41:05;11.50;99.90
33741;DHT22;20065;48.380;10.892;2023-03-29T19:43:55;11.20;99.90
33741;DHT22;20065;48.380;10.892;2023-03-29T19:46:41;11.10;99.90
33741;DHT22;20065;48.380;10.892;2023-03-29T19:49:32;11.20;99.90
33741;DHT22;20065;48.380;10.892;2023-03-29T19:52:34;11.40;99.90
33741;DHT22;20065;48.380;10.892;2023-03-29T19:55:26;11.30;99.90
33741;DHT22;20065;48.380;10.892;2023-03-29T19:58:14;11.20;99.90